Time;durP1;ratioP1;P1;durP2;ratioP2;P2;SDS_P1;SDS_P2;PMS_P1;PMS_P2;Temp;Humidity;BMP_temperature;BMP_pressure;BME280_temperature;BME280_humidity;BME280_pressure;Samples;Min_cycle;Max_cycle;Signal;HPM_P1;HPM_P2
2022/11/26 00:01:17;;;;;;;36.20;19.67;;;7.10;99.90;;;;;;5014738;28;20538;-66
2022/11/26 00:03:43;;;;;;;34.60;19.50;;;7.10;99.90;;;;;;5015032;28;20257;-66
2022/11/26 00:06:36;;;;;;;45.87;19.70;;;7.00;99.90;;;;;;5014918;28;20187;-67
2022/11/26 00:09:04;;;;;;;49.57;19.90;;;7.00;99.90;;;;;;5014634;28;20219;-69
2022/11/26 00:11:31;;;;;;;49.33;21.20;;;6.90;99.90;;;;;;4996990;28;20172;-68
2022/11/26 00:13:57;;;;;;;37.53;20.23;;;6.90;99.90;;;;;;5014577;28;20535;-68
2022/11/26 00:16:22;;;;;;;36.57;20.20;;;6.90;99.90;;;;;;5014626;28;20172;-70
2022/11/26 00:18:48;;;;;;;55.80;21.93;;;6.90;99.90;;;;;;4996908;28;20266;-70
2022/11/26 00:21:24;;;;;;;43.30;21.97;;;6.90;99.90;;;;;;5014992;28;20183;-70
2022/11/26 00:23:52;;;;;;;49.13;20.00;;;6.90;99.90;;;;;;4997068;28;20197;-70
2022/11/26 00:26:20;;;;;;;46.50;21.73;;;6.80;99.90;;;;;;5014900;28;20625;-70
2022/11/26 00:29:01;;;;;;;44.30;21.43;;;6.80;99.90;;;;;;5014469;28;20254;-70
2022/11/26 00:31:28;;;;;;;42.67;20.93;;;6.80;99.90;;;;;;5014443;28;20167;-70
2022/11/26 00:33:54;;;;;;;57.20;22.53;;;6.70;99.90;;;;;;4997088;28;20207;-70
2022/11/26 00:36:30;;;;;;;49.23;20.90;;;6.70;99.90;;;;;;5014276;28;20233;-66
2022/11/26 00:38:57;;;;;;;49.03;23.63;;;6.70;99.90;;;;;;5014268;28;20688;-68
2022/11/26 00:41:25;;;;;;;45.33;22.40;;;6.70;99.90;;;;;;5014350;28;20217;-68
2022/11/26 00:43:51;;;;;;;39.10;20.67;;;6.60;99.90;;;;;;5014220;28;20176;-68
2022/11/26 00:46:21;;;;;;;46.20;21.27;;;6.60;99.90;;;;;;5013959;28;20182;-68
2022/11/26 00:48:47;;;;;;;46.80;22.07;;;6.60;99.90;;;;;;4996348;28;20175;-68
2022/11/26 00:51:19;;;;;;;48.20;22.50;;;6.60;99.90;;;;;;4996328;28;20279;-68
2022/11/26 00:53:46;;;;;;;57.80;23.23;;;6.60;99.90;;;;;;5014004;28;20171;-66
2022/11/26 00:56:15;;;;;;;52.87;23.40;;;6.50;99.90;;;;;;5013928;28;20168;-66
2022/11/26 00:58:41;;;;;;;48.77;22.60;;;6.60;99.90;;;;;;5014395;28;20210;-66
2022/11/26 01:01:11;;;;;;;52.00;23.87;;;6.50;99.90;;;;;;4997190;28;20171;-66
2022/11/26 01:03:41;;;;;;;39.50;21.77;;;6.50;99.90;;;;;;5014654;28;20626;-66
2022/11/26 01:06:14;;;;;;;56.53;24.10;;;6.50;99.90;;;;;;5014497;28;20529;-66
2022/11/26 01:08:40;;;;;;;53.40;23.10;;;6.50;99.90;;;;;;5013568;28;20180;-66
2022/11/26 01:11:06;;;;;;;46.53;23.57;;;6.50;99.90;;;;;;4996434;28;20182;-68
2022/11/26 01:13:32;;;;;;;46.83;23.10;;;6.50;99.90;;;;;;5013685;28;20653;-68
2022/11/26 01:15:59;;;;;;;55.00;27.13;;;6.50;99.90;;;;;;5013707;28;20175;-70
2022/11/26 01:18:26;;;;;;;52.83;24.17;;;6.50;99.90;;;;;;4996434;28;20572;-70
2022/11/26 01:20:52;;;;;;;55.00;24.17;;;6.50;99.90;;;;;;4996042;28;20199;-70
2022/11/26 01:23:18;;;;;;;48.03;23.00;;;6.40;99.90;;;;;;5013577;28;20201;-70
2022/11/26 01:25:45;;;;;;;55.80;25.47;;;6.40;99.90;;;;;;5013719;28;20330;-70
2022/11/26 01:28:14;;;;;;;44.53;24.30;;;6.40;99.90;;;;;;5013890;28;20172;-70
2022/11/26 01:30:41;;;;;;;62.03;25.00;;;6.40;99.90;;;;;;5013591;28;20311;-70
2022/11/26 01:33:07;;;;;;;47.80;23.03;;;6.40;99.90;;;;;;5014127;28;20206;-70
2022/11/26 01:35:32;;;;;;;54.60;23.07;;;6.40;99.90;;;;;;4996078;28;20215;-70
2022/11/26 01:37:58;;;;;;;49.40;24.43;;;6.40;99.90;;;;;;5013536;28;20176;-66
2022/11/26 01:40:24;;;;;;;55.13;24.80;;;6.30;99.90;;;;;;5013409;28;20376;-66
2022/11/26 01:43:09;;;;;;;54.07;24.73;;;6.30;99.90;;;;;;5013407;28;20334;-66
2022/11/26 01:45:35;;;;;;;44.83;24.33;;;6.30;99.90;;;;;;5013165;28;20200;-68
2022/11/26 01:48:01;;;;;;;46.83;23.77;;;6.30;99.90;;;;;;5013473;28;20184;-69
2022/11/26 01:50:27;;;;;;;46.57;24.53;;;6.20;99.90;;;;;;5013526;28;20207;-68
2022/11/26 01:52:57;;;;;;;57.03;26.33;;;6.30;99.90;;;;;;5013488;28;20183;-70
2022/11/26 01:55:23;;;;;;;58.13;25.40;;;6.20;99.90;;;;;;4995823;28;20549;-70
2022/11/26 01:57:49;;;;;;;55.87;25.93;;;6.20;99.90;;;;;;5014024;28;20202;-66
2022/11/26 02:00:15;;;;;;;61.03;25.67;;;6.20;99.90;;;;;;4995510;28;20577;-66
2022/11/26 02:02:42;;;;;;;45.37;22.87;;;6.20;99.90;;;;;;5011862;28;20219;-66
2022/11/26 02:05:17;;;;;;;56.53;25.07;;;6.30;99.90;;;;;;5013460;28;20172;-67
2022/11/26 02:07:43;;;;;;;56.77;25.90;;;6.30;99.90;;;;;;5013415;28;20156;-68
2022/11/26 02:10:09;;;;;;;60.60;26.63;;;6.30;99.90;;;;;;4995464;28;20630;-68
2022/11/26 02:12:36;;;;;;;50.13;24.50;;;6.30;99.90;;;;;;4995490;28;20188;-68
2022/11/26 02:15:02;;;;;;;45.67;23.33;;;6.40;99.90;;;;;;5012987;28;20179;-68
2022/11/26 02:17:40;;;;;;;45.87;23.73;;;6.50;99.90;;;;;;5012977;28;20180;-68
2022/11/26 02:20:24;;;;;;;44.07;23.63;;;6.50;99.90;;;;;;5013014;28;20207;-68
2022/11/26 02:23:24;;;;;;;49.63;24.03;;;6.40;99.90;;;;;;4998537;28;20298;-68
2022/11/26 02:26:08;;;;;;;54.53;23.17;;;6.40;99.90;;;;;;4998984;28;20180;-68
2022/11/26 02:29:11;;;;;;;56.60;25.23;;;6.40;99.90;;;;;;5019892;28;20229;-69
2022/11/26 02:31:54;;;;;;;46.47;22.73;;;6.40;99.90;;;;;;4998818;28;20175;-67
2022/11/26 02:34:40;;;;;;;51.57;24.07;;;6.40;99.90;;;;;;4998926;28;20295;-67
2022/11/26 02:37:38;;;;;;;55.67;24.13;;;6.40;99.90;;;;;;5016502;28;20160;-70
2022/11/26 02:40:06;;;;;;;48.00;22.77;;;6.30;99.90;;;;;;4998147;28;20223;-70
2022/11/26 02:42:34;;;;;;;47.80;21.90;;;6.30;99.90;;;;;;5016111;28;20199;-68
2022/11/26 02:45:07;;;;;;;49.23;23.53;;;6.20;99.90;;;;;;5016120;28;20180;-68
2022/11/26 02:47:35;;;;;;;45.50;21.70;;;6.20;99.90;;;;;;5016217;28;20168;-66
2022/11/26 02:50:07;;;;;;;44.83;21.73;;;6.20;99.90;;;;;;5015980;28;20214;-66
2022/11/26 02:52:34;;;;;;;47.17;22.87;;;6.20;99.90;;;;;;5016402;28;20196;-66
2022/11/26 02:55:02;;;;;;;43.73;23.00;;;6.20;99.90;;;;;;5015949;28;20668;-66
2022/11/26 02:57:31;;;;;;;43.87;21.50;;;6.20;99.90;;;;;;5014588;28;20188;-66
2022/11/26 02:59:57;;;;;;;42.87;20.43;;;6.10;99.90;;;;;;5015717;28;20207;-66
2022/11/26 03:02:41;;;;;;;38.60;21.10;;;6.10;99.90;;;;;;5014483;28;20212;-66
2022/11/26 03:05:08;;;;;;;34.40;20.30;;;6.10;99.90;;;;;;5015827;28;20164;-66
2022/11/26 03:07:35;;;;;;;37.10;19.37;;;6.00;99.90;;;;;;5015784;28;20180;-68
2022/11/26 03:10:01;;;;;;;33.43;19.50;;;6.00;99.90;;;;;;5015393;28;20691;-68
2022/11/26 03:12:28;;;;;;;35.07;19.43;;;5.90;99.90;;;;;;4998069;28;20198;-68
2022/11/26 03:14:54;;;;;;;37.43;18.37;;;5.90;99.90;;;;;;5015529;28;20306;-69
2022/11/26 03:17:20;;;;;;;37.47;18.37;;;5.80;99.90;;;;;;5015654;28;20180;-69
2022/11/26 03:19:47;;;;;;;34.43;18.30;;;5.70;99.90;;;;;;4998038;28;20203;-68
2022/11/26 03:22:13;;;;;;;34.03;18.47;;;5.70;99.90;;;;;;4997724;28;20211;-68
2022/11/26 03:24:39;;;;;;;32.43;17.57;;;5.60;99.90;;;;;;4997779;28;20270;-68
2022/11/26 03:27:05;;;;;;;31.80;17.83;;;5.60;99.90;;;;;;5015669;28;20176;-68
2022/11/26 03:29:31;;;;;;;33.00;17.03;;;5.50;99.90;;;;;;5015255;28;20199;-68
2022/11/26 03:31:57;;;;;;;33.93;17.63;;;5.40;99.90;;;;;;5014840;28;20633;-67
2022/11/26 03:34:23;;;;;;;30.80;17.07;;;5.40;99.90;;;;;;5015203;28;20267;-68
2022/11/26 03:36:49;;;;;;;31.67;17.20;;;5.30;99.90;;;;;;5015236;28;20544;-68
2022/11/26 03:39:15;;;;;;;29.90;17.10;;;5.30;99.90;;;;;;5015225;28;20215;-68
2022/11/26 03:41:43;;;;;;;30.23;17.00;;;5.30;99.90;;;;;;5015201;28;20191;-67
2022/11/26 03:44:10;;;;;;;29.10;16.13;;;5.30;99.90;;;;;;5015583;28;20187;-68
2022/11/26 03:46:36;;;;;;;29.30;17.07;;;5.30;99.90;;;;;;4997294;28;20183;-68
2022/11/26 03:49:02;;;;;;;30.00;16.90;;;5.20;99.90;;;;;;5015315;28;20192;-68
2022/11/26 03:51:28;;;;;;;28.00;15.87;;;5.10;99.90;;;;;;5015010;28;20647;-68
2022/11/26 03:53:54;;;;;;;25.47;16.07;;;5.00;99.90;;;;;;5013666;28;20191;-67
2022/11/26 03:56:19;;;;;;;27.00;16.33;;;5.00;99.90;;;;;;5015389;28;20207;-67
2022/11/26 03:58:45;;;;;;;25.53;16.07;;;5.00;99.90;;;;;;5014848;28;20266;-67
2022/11/26 04:01:12;;;;;;;23.63;15.90;;;5.00;99.90;;;;;;5013802;28;20544;-68
2022/11/26 04:03:38;;;;;;;21.97;15.33;;;4.90;99.90;;;;;;5015342;28;20217;-68
2022/11/26 04:06:05;;;;;;;23.23;14.87;;;4.90;99.90;;;;;;5014787;28;20172;-68
2022/11/26 04:08:31;;;;;;;23.63;15.27;;;4.90;99.90;;;;;;5014555;28;20183;-69
2022/11/26 04:10:57;;;;;;;27.07;15.50;;;4.70;99.90;;;;;;5014593;28;20196;-70
2022/11/26 04:13:23;;;;;;;24.63;14.90;;;4.70;99.90;;;;;;5014672;28;20179;-70
2022/11/26 04:15:49;;;;;;;28.63;15.67;;;4.50;99.90;;;;;;5014464;28;20588;-71
2022/11/26 04:18:15;;;;;;;22.10;16.17;;;4.40;99.90;;;;;;5013258;28;20606;-71
2022/11/26 04:20:41;;;;;;;22.57;14.97;;;4.40;99.90;;;;;;4996843;28;20576;-67
2022/11/26 04:23:06;;;;;;;28.00;15.07;;;4.30;99.90;;;;;;5014693;28;20204;-68
2022/11/26 04:25:32;;;;;;;20.47;14.23;;;4.40;99.90;;;;;;4996714;28;20179;-68
2022/11/26 04:27:58;;;;;;;26.60;15.30;;;4.30;99.90;;;;;;5014574;28;20287;-68
2022/11/26 04:30:24;;;;;;;22.20;14.57;;;4.20;99.90;;;;;;5014093;28;20242;-69
2022/11/26 04:32:50;;;;;;;30.80;15.53;;;4.20;99.90;;;;;;5014350;28;20539;-68
2022/11/26 04:35:15;;;;;;;22.00;14.27;;;4.20;99.90;;;;;;5014230;28;20160;-66
2022/11/26 04:37:41;;;;;;;30.37;15.33;;;4.30;99.90;;;;;;5014352;28;20569;-66
2022/11/26 04:40:08;;;;;;;26.33;15.87;;;4.40;99.90;;;;;;4996355;28;20238;-67
2022/11/26 04:42:33;;;;;;;27.40;16.23;;;4.40;99.90;;;;;;5014009;28;20196;-70
2022/11/26 04:44:59;;;;;;;31.17;18.57;;;4.40;99.90;;;;;;5013593;28;20569;-70
2022/11/26 04:47:25;;;;;;;27.73;15.63;;;4.50;99.90;;;;;;5014033;28;20237;-66
2022/11/26 04:49:50;;;;;;;32.10;15.67;;;4.50;99.90;;;;;;5013985;28;20730;-68
2022/11/26 04:52:16;;;;;;;29.90;18.07;;;4.60;99.90;;;;;;5014213;28;20172;-68
2022/11/26 04:54:42;;;;;;;27.73;16.73;;;4.60;99.90;;;;;;5014276;28;20559;-68
2022/11/26 04:57:08;;;;;;;30.57;16.20;;;4.60;99.90;;;;;;5013855;28;20180;-68
2022/11/26 04:59:34;;;;;;;26.80;16.13;;;4.60;99.90;;;;;;5013712;28;20687;-66
2022/11/26 05:02:00;;;;;;;26.47;16.20;;;4.50;99.90;;;;;;5014190;28;20294;-70
2022/11/26 05:04:27;;;;;;;23.77;15.97;;;4.50;99.90;;;;;;4996150;28;20645;-70
2022/11/26 05:06:53;;;;;;;24.70;14.23;;;4.40;99.90;;;;;;5013726;28;20167;-70
2022/11/26 05:09:19;;;;;;;19.10;13.97;;;4.40;99.90;;;;;;5013644;28;20220;-70
2022/11/26 05:11:46;;;;;;;23.97;14.90;;;4.30;99.90;;;;;;5013893;28;20291;-70
2022/11/26 05:14:12;;;;;;;25.83;14.33;;;4.30;99.90;;;;;;4996239;28;20721;-70
2022/11/26 05:16:38;;;;;;;22.03;15.83;;;4.20;99.90;;;;;;5013517;28;20175;-70
2022/11/26 05:19:03;;;;;;;27.80;15.77;;;4.20;99.90;;;;;;5013554;28;20202;-70
2022/11/26 05:21:29;;;;;;;25.20;14.90;;;4.20;99.90;;;;;;5013490;28;20294;-70
2022/11/26 05:23:55;;;;;;;24.80;15.27;;;4.20;99.90;;;;;;4995764;28;20207;-70
2022/11/26 05:26:20;;;;;;;36.57;16.97;;;4.20;99.90;;;;;;5013863;28;20184;-66
2022/11/26 05:28:46;;;;;;;31.80;15.63;;;4.20;99.90;;;;;;5013449;28;20222;-67
2022/11/26 05:31:12;;;;;;;24.13;15.10;;;4.20;99.90;;;;;;5013552;28;20240;-66
2022/11/26 05:33:38;;;;;;;27.27;14.43;;;4.20;99.90;;;;;;5013418;28;20180;-68
2022/11/26 05:36:04;;;;;;;24.77;15.63;;;4.10;99.90;;;;;;5013753;28;20183;-70
2022/11/26 05:38:29;;;;;;;26.17;14.23;;;4.10;99.90;;;;;;4995722;28;20223;-70
2022/11/26 05:40:55;;;;;;;30.33;15.23;;;4.10;99.90;;;;;;5013901;28;20246;-70
2022/11/26 05:43:21;;;;;;;23.33;14.37;;;4.10;99.90;;;;;;5012039;28;20214;-68
2022/11/26 05:45:47;;;;;;;27.47;14.53;;;4.10;99.90;;;;;;5013263;28;20532;-68
2022/11/26 05:48:13;;;;;;;25.77;14.53;;;4.00;99.90;;;;;;4995746;28;20266;-68
2022/11/26 05:50:39;;;;;;;32.43;15.97;;;4.00;99.90;;;;;;4995718;28;20578;-66
2022/11/26 05:53:05;;;;;;;22.40;15.40;;;3.90;99.90;;;;;;5013304;28;20188;-66
2022/11/26 05:55:31;;;;;;;25.43;14.07;;;3.90;99.90;;;;;;5014619;28;20628;-66
2022/11/26 05:57:56;;;;;;;19.90;13.60;;;3.80;99.90;;;;;;5017458;28;20194;-66
2022/11/26 06:00:22;;;;;;;21.87;13.47;;;3.80;99.90;;;;;;5016650;28;20283;-66
2022/11/26 06:02:48;;;;;;;20.63;13.20;;;3.80;99.90;;;;;;5015328;28;20241;-66
2022/11/26 06:05:14;;;;;;;18.27;12.57;;;3.70;99.90;;;;;;5016979;28;20599;-66
2022/11/26 06:07:40;;;;;;;17.93;12.50;;;3.70;99.90;;;;;;5016669;28;20640;-66
2022/11/26 06:10:07;;;;;;;21.60;11.73;;;3.60;99.90;;;;;;5016408;28;20270;-66
2022/11/26 06:12:33;;;;;;;18.60;12.10;;;3.60;99.90;;;;;;4998818;28;20191;-66
2022/11/26 06:14:58;;;;;;;28.73;15.73;;;3.60;99.90;;;;;;5016552;28;20184;-66
2022/11/26 06:17:24;;;;;;;27.90;14.33;;;3.70;99.90;;;;;;5016567;28;20183;-66
2022/11/26 06:19:51;;;;;;;23.60;15.37;;;3.70;99.90;;;;;;4998928;28;20625;-68
2022/11/26 06:22:17;;;;;;;22.30;14.27;;;3.70;99.90;;;;;;5016579;28;20199;-68
2022/11/26 06:24:43;;;;;;;24.47;14.47;;;3.70;99.90;;;;;;5016785;28;20514;-66
2022/11/26 06:27:08;;;;;;;21.30;14.50;;;3.60;99.90;;;;;;5016330;28;20176;-68
2022/11/26 06:29:34;;;;;;;22.97;13.93;;;3.60;99.90;;;;;;5016465;28;20195;-68
2022/11/26 06:32:00;;;;;;;22.37;13.77;;;3.60;99.90;;;;;;5018412;28;20724;-68
2022/11/26 06:34:26;;;;;;;19.20;12.93;;;3.60;99.90;;;;;;5016985;28;20187;-68
2022/11/26 06:36:52;;;;;;;20.57;12.80;;;3.60;99.90;;;;;;5016546;28;20210;-68
2022/11/26 06:39:17;;;;;;;18.60;13.53;;;3.60;99.90;;;;;;5016285;28;20278;-69
2022/11/26 06:41:43;;;;;;;26.27;13.67;;;3.60;99.90;;;;;;4999321;28;20244;-69
2022/11/26 06:44:09;;;;;;;28.07;13.87;;;3.70;99.90;;;;;;5016605;28;20242;-69
2022/11/26 06:46:35;;;;;;;22.50;13.83;;;3.70;99.90;;;;;;5016490;28;20186;-68
2022/11/26 06:49:03;;;;;;;26.97;15.40;;;3.70;99.90;;;;;;4998754;28;20208;-68
2022/11/26 06:51:29;;;;;;;25.10;14.67;;;3.70;99.90;;;;;;5016739;28;20180;-68
2022/11/26 06:53:54;;;;;;;20.20;13.07;;;3.70;99.90;;;;;;5016183;28;20179;-68
2022/11/26 06:56:20;;;;;;;25.83;14.03;;;3.70;99.90;;;;;;4998238;28;20187;-68
2022/11/26 06:58:47;;;;;;;23.50;14.00;;;3.70;99.90;;;;;;5015838;28;20179;-68
2022/11/26 07:01:18;;;;;;;22.27;14.17;;;3.70;99.90;;;;;;5015614;28;20183;-68
2022/11/26 07:03:44;;;;;;;24.07;14.03;;;3.60;99.90;;;;;;5015491;28;20195;-69
2022/11/26 07:06:22;;;;;;;22.27;13.03;;;3.50;99.90;;;;;;5015385;28;20548;-68
2022/11/26 07:08:48;;;;;;;22.90;13.63;;;3.60;99.90;;;;;;5014915;28;20180;-68
2022/11/26 07:11:14;;;;;;;22.43;13.63;;;3.60;99.90;;;;;;5015614;28;20173;-68
2022/11/26 07:13:41;;;;;;;23.37;13.37;;;3.60;99.90;;;;;;5015341;28;20176;-68
2022/11/26 07:16:06;;;;;;;21.73;13.37;;;3.60;99.90;;;;;;4997568;28;20287;-68
2022/11/26 07:18:32;;;;;;;20.50;12.67;;;3.50;99.90;;;;;;4997696;28;20192;-68
2022/11/26 07:21:08;;;;;;;19.87;13.00;;;3.50;99.90;;;;;;5015103;28;20703;-67
2022/11/26 07:23:34;;;;;;;23.03;13.33;;;3.50;99.90;;;;;;5015076;28;20275;-67
2022/11/26 07:26:01;;;;;;;17.53;13.30;;;3.50;99.90;;;;;;4997393;28;20249;-67
2022/11/26 07:28:28;;;;;;;27.30;15.00;;;3.60;99.90;;;;;;5015081;28;20180;-67
2022/11/26 07:30:54;;;;;;;22.07;13.23;;;3.60;99.90;;;;;;5014838;28;20692;-67
2022/11/26 07:33:20;;;;;;;23.33;14.67;;;3.50;99.90;;;;;;5014922;28;20180;-67
2022/11/26 07:35:45;;;;;;;22.27;14.13;;;3.50;99.90;;;;;;5014894;28;20275;-67
2022/11/26 07:38:11;;;;;;;25.33;14.17;;;3.50;99.90;;;;;;5014877;28;20262;-67
2022/11/26 07:40:37;;;;;;;20.90;14.07;;;3.40;99.90;;;;;;4997217;28;20203;-67
2022/11/26 07:43:02;;;;;;;19.27;14.10;;;3.40;99.90;;;;;;5014801;28;20261;-67
2022/11/26 07:45:28;;;;;;;26.00;14.47;;;3.40;99.90;;;;;;4996960;28;20457;-67
2022/11/26 07:47:54;;;;;;;21.97;14.40;;;3.40;99.90;;;;;;5014975;28;20164;-67
2022/11/26 07:50:20;;;;;;;25.73;15.87;;;3.30;99.90;;;;;;5014445;28;20715;-67
2022/11/26 07:52:45;;;;;;;22.17;15.00;;;3.40;99.90;;;;;;5014607;28;20184;-67
2022/11/26 07:55:11;;;;;;;23.97;15.13;;;3.40;99.90;;;;;;4997003;28;20192;-67
2022/11/26 07:57:37;;;;;;;23.70;16.47;;;3.40;99.90;;;;;;4996802;28;20602;-67
2022/11/26 08:00:03;;;;;;;24.73;16.00;;;3.40;99.90;;;;;;5014351;28;20730;-67
2022/11/26 08:02:29;;;;;;;27.17;15.80;;;3.40;99.90;;;;;;4996494;28;20211;-67
2022/11/26 08:04:54;;;;;;;27.33;14.70;;;3.50;99.90;;;;;;5014339;28;20237;-67
2022/11/26 08:07:20;;;;;;;19.07;14.77;;;3.60;99.90;;;;;;5014900;28;20179;-66
2022/11/26 08:09:46;;;;;;;22.77;15.00;;;3.60;99.90;;;;;;5014728;28;20223;-68
2022/11/26 08:12:12;;;;;;;18.53;14.20;;;3.70;99.90;;;;;;5014453;28;20187;-68
2022/11/26 08:14:37;;;;;;;21.77;14.37;;;3.60;99.90;;;;;;4996509;28;20180;-68
2022/11/26 08:17:03;;;;;;;25.73;15.67;;;3.70;99.90;;;;;;5014127;28;20558;-68
2022/11/26 08:19:29;;;;;;;26.90;16.03;;;3.80;99.90;;;;;;4995301;28;20200;-69
2022/11/26 08:21:54;;;;;;;25.77;15.60;;;3.80;99.90;;;;;;5013997;28;20184;-68
2022/11/26 08:24:22;;;;;;;24.17;14.67;;;3.90;99.90;;;;;;5013990;28;20587;-68
2022/11/26 08:26:48;;;;;;;16.70;12.23;;;3.90;99.90;;;;;;4996265;28;20179;-68
2022/11/26 08:29:14;;;;;;;15.93;12.77;;;4.00;99.90;;;;;;5013800;28;20205;-68
2022/11/26 08:31:40;;;;;;;18.23;14.47;;;3.90;99.90;;;;;;4996115;28;20241;-69
2022/11/26 08:34:06;;;;;;;18.53;15.03;;;3.90;99.90;;;;;;4996186;28;20667;-69
2022/11/26 08:36:32;;;;;;;21.13;14.03;;;4.00;99.90;;;;;;4996042;28;20186;-69
2022/11/26 08:38:59;;;;;;;20.30;14.80;;;4.00;99.90;;;;;;5014002;28;20575;-69
2022/11/26 08:41:25;;;;;;;19.57;15.10;;;4.10;99.90;;;;;;5013693;28;20195;-69
2022/11/26 08:43:50;;;;;;;20.47;15.30;;;4.20;99.90;;;;;;4996153;28;20223;-69
2022/11/26 08:46:16;;;;;;;21.03;15.43;;;4.20;99.90;;;;;;4995930;28;20535;-69
2022/11/26 08:48:44;;;;;;;22.10;16.13;;;4.30;99.90;;;;;;4996007;28;20191;-69
2022/11/26 08:51:11;;;;;;;23.90;15.43;;;4.40;99.90;;;;;;5013714;28;20203;-69
2022/11/26 08:53:37;;;;;;;18.57;14.40;;;4.50;99.90;;;;;;5013868;28;20207;-69
2022/11/26 08:56:09;;;;;;;19.63;14.30;;;4.60;99.90;;;;;;4996058;28;20183;-69
2022/11/26 08:58:38;;;;;;;18.47;13.67;;;4.70;99.90;;;;;;5013852;28;20262;-69
2022/11/26 09:01:12;;;;;;;16.80;13.13;;;4.80;99.90;;;;;;4995664;28;20211;-69
2022/11/26 09:03:38;;;;;;;18.03;14.00;;;4.90;99.90;;;;;;4995797;28;20203;-69
2022/11/26 09:06:06;;;;;;;22.50;14.87;;;5.00;99.90;;;;;;5013324;28;20172;-68
2022/11/26 09:09:11;;;;;;;23.07;15.00;;;5.10;99.90;;;;;;5013268;28;20176;-68
2022/11/26 09:11:21;;;;;;;24.30;16.23;;;5.20;99.90;;;;;;5013324;28;20230;-68
2022/11/26 09:13:46;;;;;;;21.80;14.10;;;5.30;99.90;;;;;;5013763;28;20259;-68
2022/11/26 09:16:12;;;;;;;18.87;13.60;;;5.30;99.90;;;;;;5013114;28;20677;-68
2022/11/26 09:18:38;;;;;;;18.73;13.57;;;5.40;99.90;;;;;;5013163;28;20266;-67
2022/11/26 09:21:04;;;;;;;18.90;12.97;;;5.50;99.90;;;;;;5013326;28;20214;-68
2022/11/26 09:23:30;;;;;;;21.10;14.13;;;5.60;99.90;;;;;;5013645;28;20195;-68
2022/11/26 09:25:55;;;;;;;24.90;15.60;;;5.70;99.90;;;;;;5013311;28;20187;-68
2022/11/26 09:28:21;;;;;;;33.07;15.43;;;5.80;99.90;;;;;;5013213;28;20291;-70
2022/11/26 09:30:48;;;;;;;33.10;16.43;;;6.00;99.90;;;;;;4997261;28;20210;-70
2022/11/26 09:33:13;;;;;;;31.57;17.37;;;6.20;99.90;;;;;;5017189;28;20261;-70
2022/11/26 09:35:39;;;;;;;32.67;17.17;;;6.40;99.90;;;;;;5017809;28;20237;-70
2022/11/26 09:38:05;;;;;;;35.87;17.73;;;6.50;99.90;;;;;;5017469;28;20601;-68
2022/11/26 09:40:46;;;;;;;35.83;17.97;;;6.60;99.90;;;;;;5017258;28;20206;-75
2022/11/26 09:43:41;;;;;;;34.53;17.57;;;6.70;99.90;;;;;;5017199;28;20195;-67
2022/11/26 09:46:08;;;;;;;34.93;17.20;;;6.80;99.90;;;;;;4966818;28;20191;-67
2022/11/26 09:48:38;;;;;;;35.10;17.47;;;6.90;99.90;;;;;;4999340;28;20183;-68
2022/11/26 09:51:10;;;;;;;35.77;19.37;;;6.90;99.90;;;;;;5016955;28;20655;-67
2022/11/26 09:53:45;;;;;;;41.50;18.07;;;7.00;99.90;;;;;;4991610;28;20184;-67
2022/11/26 09:56:18;;;;;;;36.50;17.97;;;7.10;99.90;;;;;;4997350;28;20219;-67
2022/11/26 09:59:01;;;;;;;34.27;18.27;;;7.20;99.90;;;;;;5008570;28;20180;-68
2022/11/26 10:01:29;;;;;;;37.93;18.73;;;7.30;99.90;;;;;;5006971;28;20179;-70
2022/11/26 10:03:55;;;;;;;41.53;18.23;;;7.40;99.90;;;;;;4998507;28;20618;-69
2022/11/26 10:06:49;;;;;;;39.80;18.07;;;7.50;99.90;;;;;;5016382;28;20690;-68
2022/11/26 10:09:34;;;;;;;34.40;16.83;;;7.70;99.90;;;;;;5015136;28;20215;-68
2022/11/26 10:12:06;;;;;;;29.03;17.20;;;7.80;99.90;;;;;;5015417;28;20195;-68
2022/11/26 10:14:44;;;;;;;33.43;16.10;;;8.00;99.90;;;;;;4998587;28;20268;-68
2022/11/26 10:17:27;;;;;;;34.63;16.37;;;8.20;99.90;;;;;;5016504;28;20187;-68
2022/11/26 10:20:06;;;;;;;33.30;14.23;;;8.20;99.90;;;;;;4998748;28;20199;-68
2022/11/26 10:22:51;;;;;;;36.67;14.77;;;8.30;99.90;;;;;;5016372;28;20199;-68
2022/11/26 10:25:23;;;;;;;26.30;14.70;;;8.30;99.90;;;;;;5016178;28;20633;-68
2022/11/26 10:27:50;;;;;;;25.73;12.90;;;8.40;99.90;;;;;;5016332;28;20192;-68
2022/11/26 10:30:26;;;;;;;28.00;13.17;;;8.40;99.90;;;;;;4998724;28;20618;-68
2022/11/26 10:32:54;;;;;;;24.93;11.67;;;8.40;99.90;;;;;;5016256;28;20254;-69
2022/11/26 10:35:28;;;;;;;28.57;12.20;;;8.40;99.90;;;;;;5016168;28;20194;-68
2022/11/26 10:37:57;;;;;;;19.57;11.80;;;8.50;99.90;;;;;;5016445;28;20182;-68
2022/11/26 10:40:29;;;;;;;31.33;11.63;;;8.50;99.90;;;;;;5016935;28;20279;-71
2022/11/26 10:43:07;;;;;;;20.07;11.23;;;8.60;99.90;;;;;;5015573;28;20227;-70
2022/11/26 10:45:42;;;;;;;26.57;10.60;;;8.60;99.90;;;;;;5015997;28;20186;-70
2022/11/26 10:48:29;;;;;;;21.60;10.90;;;8.60;99.90;;;;;;5016141;28;20645;-70
2022/11/26 10:51:03;;;;;;;18.60;9.57;;;8.70;99.90;;;;;;4982856;28;20230;-70
2022/11/26 10:53:34;;;;;;;19.77;10.43;;;8.80;99.90;;;;;;4998390;28;20263;-70
2022/11/26 10:56:02;;;;;;;21.80;10.60;;;8.80;99.90;;;;;;5016538;28;20321;-70
2022/11/26 10:58:39;;;;;;;24.60;10.03;;;8.90;99.90;;;;;;5016061;28;20183;-70
2022/11/26 11:01:06;;;;;;;19.67;8.80;;;9.00;99.90;;;;;;5016230;28;20192;-70
2022/11/26 11:03:46;;;;;;;17.10;8.63;;;9.00;99.90;;;;;;4998144;28;20302;-70
2022/11/26 11:06:24;;;;;;;22.40;9.10;;;9.00;99.90;;;;;;4998463;28;20211;-70
2022/11/26 11:08:51;;;;;;;23.40;8.73;;;9.10;99.90;;;;;;4998348;28;20331;-70
2022/11/26 11:11:29;;;;;;;13.83;8.30;;;9.00;99.90;;;;;;5015839;28;20164;-70
2022/11/26 11:13:55;;;;;;;20.07;9.07;;;9.10;99.90;;;;;;5016137;28;20233;-70
2022/11/26 11:16:26;;;;;;;20.37;8.60;;;9.10;99.90;;;;;;5015661;28;20186;-70
2022/11/26 11:18:57;;;;;;;15.17;7.70;;;9.10;99.90;;;;;;5014363;28;20664;-70
2022/11/26 11:21:29;;;;;;;24.13;8.57;;;9.20;99.90;;;;;;5015539;28;20207;-70
2022/11/26 11:24:26;;;;;;;13.63;7.70;;;9.20;99.90;;;;;;5014297;28;20315;-70
2022/11/26 11:26:54;;;;;;;18.77;7.73;;;9.30;99.90;;;;;;5015651;28;20163;-70
2022/11/26 11:29:27;;;;;;;21.47;7.10;;;9.50;99.90;;;;;;5015395;28;20191;-70
2022/11/26 11:31:54;;;;;;;12.40;6.63;;;9.60;99.90;;;;;;5015324;28;20724;-70
2022/11/26 11:34:25;;;;;;;15.57;6.70;;;9.60;99.90;;;;;;5015682;28;20172;-70
2022/11/26 11:37:20;;;;;;;16.73;7.60;;;9.70;99.90;;;;;;5015362;28;20168;-70
2022/11/26 11:40:02;;;;;;;17.77;7.13;;;9.60;99.90;;;;;;4982761;28;20251;-70
2022/11/26 11:42:28;;;;;;;13.37;6.60;;;9.70;99.90;;;;;;4997743;28;20203;-78
2022/11/26 11:44:56;;;;;;;20.37;7.37;;;9.70;99.90;;;;;;4979817;28;20552;-78
2022/11/26 11:47:37;;;;;;;13.87;6.57;;;9.80;99.90;;;;;;4997387;28;20176;-78
2022/11/26 11:50:24;;;;;;;14.20;5.90;;;10.00;99.90;;;;;;4996652;28;20227;-69
2022/11/26 11:52:58;;;;;;;16.03;6.47;;;10.00;99.90;;;;;;4977846;28;20267;-68
2022/11/26 11:55:35;;;;;;;14.87;5.80;;;10.20;99.90;;;;;;4977959;28;20180;-68
2022/11/26 11:58:23;;;;;;;14.23;5.90;;;10.40;99.90;;;;;;4995358;28;20169;-68
2022/11/26 12:01:09;;;;;;;15.87;6.20;;;10.60;99.90;;;;;;4995241;28;20197;-68
2022/11/26 12:04:02;;;;;;;13.07;6.27;;;10.60;99.90;;;;;;4995350;28;20204;-68
2022/11/26 12:06:48;;;;;;;16.03;6.40;;;10.70;99.90;;;;;;4977770;28;20172;-68
2022/11/26 12:09:53;;;;;;;14.67;5.60;;;10.70;99.90;;;;;;5005887;28;20231;-68
2022/11/26 12:12:31;;;;;;;17.33;6.43;;;10.80;99.90;;;;;;5015209;28;20246;-68
2022/11/26 12:15:26;;;;;;;12.93;5.80;;;10.70;99.90;;;;;;5014787;28;20179;-68
2022/11/26 12:18:02;;;;;;;21.13;6.43;;;10.70;99.90;;;;;;4968759;28;20249;-69
2022/11/26 12:20:43;;;;;;;16.43;6.27;;;10.60;99.90;;;;;;5014660;28;20196;-69
2022/11/26 12:23:23;;;;;;;12.20;5.73;;;10.50;99.90;;;;;;4996861;28;20341;-72
2022/11/26 12:25:57;;;;;;;14.97;5.73;;;10.40;99.90;;;;;;4997169;28;20172;-69
2022/11/26 12:28:37;;;;;;;11.03;5.77;;;10.30;99.90;;;;;;5014776;28;20159;-69
2022/11/26 12:31:35;;;;;;;20.00;6.67;;;10.20;99.90;;;;;;5014667;28;20582;-69
2022/11/26 12:34:26;;;;;;;17.67;6.27;;;10.20;99.90;;;;;;5014432;28;20318;-69
2022/11/26 12:37:05;;;;;;;14.83;6.13;;;10.10;99.90;;;;;;5014828;28;20597;-69
2022/11/26 12:39:46;;;;;;;13.70;5.80;;;10.10;99.90;;;;;;5014361;28;20294;-69
2022/11/26 12:42:22;;;;;;;9.87;5.50;;;10.10;99.90;;;;;;5014329;28;20187;-69
2022/11/26 12:44:50;;;;;;;14.13;5.50;;;10.10;99.90;;;;;;5014389;28;20179;-69
2022/11/26 12:47:29;;;;;;;16.87;6.87;;;10.10;99.90;;;;;;4997096;28;20218;-66
2022/11/26 12:50:04;;;;;;;18.37;6.60;;;10.10;99.90;;;;;;5015129;28;20219;-66
2022/11/26 12:52:47;;;;;;;17.27;6.50;;;10.10;99.90;;;;;;5016057;28;20164;-67